Time;durP1;ratioP1;P1;durP2;ratioP2;P2;SDS_P1;SDS_P2;PMS_P1;PMS_P2;Temp;Humidity;BMP_temperature;BMP_pressure;BME280_temperature;BME280_humidity;BME280_pressure;Samples;Min_cycle;Max_cycle;Signal;HPM_P1;HPM_P2
2021/09/07 00:00:55;;;;;;;17.27;9.13;;;15.60;99.90;15.70;101342.00;;;;4954562;28;87958;-65
2021/09/07 00:03:21;;;;;;;15.27;8.63;;;15.60;99.90;15.70;101348.00;;;;4957443;28;87961;-65
2021/09/07 00:05:47;;;;;;;11.60;6.80;;;15.60;99.90;15.70;101340.00;;;;4950933;28;115828;-64
2021/09/07 00:08:13;;;;;;;11.55;7.60;;;15.60;99.90;15.70;101340.00;;;;4953680;28;116582;-64
2021/09/07 00:10:38;;;;;;;8.35;6.78;;;15.60;99.90;15.70;101330.00;;;;4960763;28;110718;-64
2021/09/07 00:13:04;;;;;;;12.13;7.15;;;15.60;99.90;15.70;101339.00;;;;4960049;28;87213;-65
2021/09/07 00:15:30;;;;;;;12.10;7.93;;;15.60;99.90;15.70;101335.00;;;;4959012;28;104434;-65
2021/09/07 00:17:56;;;;;;;11.73;6.72;;;15.60;99.90;15.70;101334.00;;;;4961660;28;114752;-65
2021/09/07 00:20:24;;;;;;;9.07;6.22;;;15.60;99.90;15.70;101337.00;;;;4958996;28;99047;-65
2021/09/07 00:22:50;;;;;;;12.05;6.65;;;15.60;99.90;15.70;101326.00;;;;4954425;28;87907;-65
2021/09/07 00:25:16;;;;;;;12.55;7.40;;;15.60;99.90;15.70;101334.00;;;;4959803;28;88778;-65
2021/09/07 00:27:42;;;;;;;8.05;6.68;;;15.60;99.90;15.80;101335.00;;;;4953927;28;117786;-65
2021/09/07 00:30:08;;;;;;;10.43;6.38;;;15.60;99.90;15.80;101343.00;;;;4957229;28;109174;-63
2021/09/07 00:32:34;;;;;;;13.40;7.93;;;15.70;99.90;15.80;101334.00;;;;4953566;28;87618;-66
2021/09/07 00:35:00;;;;;;;17.25;7.38;;;15.60;99.90;15.70;101334.00;;;;4952770;28;118223;-64
2021/09/07 00:37:26;;;;;;;9.60;6.97;;;15.60;99.90;15.70;101323.00;;;;4957424;28;92160;-64
2021/09/07 00:39:51;;;;;;;10.00;7.33;;;15.60;99.90;15.60;101324.00;;;;4960575;28;87767;-64
2021/09/07 00:42:17;;;;;;;13.15;8.10;;;15.50;99.90;15.60;101329.00;;;;4959621;28;103669;-64
2021/09/07 00:44:43;;;;;;;11.68;6.97;;;15.50;99.90;15.50;101332.00;;;;4956828;28;88821;-64
2021/09/07 00:47:09;;;;;;;9.93;7.20;;;15.50;99.90;15.50;101329.00;;;;4952214;28;118497;-64
2021/09/07 00:49:36;;;;;;;9.88;6.95;;;15.40;99.90;15.50;101322.00;;;;4953690;28;87865;-64
2021/09/07 00:52:04;;;;;;;13.43;6.72;;;15.40;99.90;15.60;101319.00;;;;4966673;28;87658;-65
2021/09/07 00:54:37;;;;;;;12.45;7.60;;;15.40;99.90;15.60;101306.00;;;;4953304;28;89168;-64
2021/09/07 00:57:08;;;;;;;10.88;6.47;;;15.50;99.90;15.50;101317.00;;;;4960142;28;88063;-64
2021/09/07 00:59:35;;;;;;;14.05;7.00;;;15.40;99.90;15.50;101320.00;;;;4939643;28;87828;-64
2021/09/07 01:02:01;;;;;;;11.73;8.00;;;15.40;99.90;15.50;101313.00;;;;4957646;28;87090;-64
2021/09/07 01:04:27;;;;;;;11.30;7.47;;;15.40;99.90;15.50;101311.00;;;;4964167;28;88657;-66
2021/09/07 01:06:53;;;;;;;14.73;8.25;;;15.40;99.90;15.50;101310.00;;;;4960914;28;88180;-65
2021/09/07 01:09:19;;;;;;;13.57;8.75;;;15.40;99.90;15.50;101300.00;;;;4952769;28;88765;-64
2021/09/07 01:11:45;;;;;;;10.73;6.85;;;15.40;99.90;15.40;101303.00;;;;4955077;28;110049;-64
2021/09/07 01:14:10;;;;;;;11.77;6.18;;;15.40;99.90;15.40;101299.00;;;;4951937;28;115613;-64
2021/09/07 01:16:36;;;;;;;11.13;7.35;;;15.40;99.90;15.40;101294.00;;;;4954569;28;118716;-64
2021/09/07 01:19:03;;;;;;;14.82;8.15;;;15.40;99.90;15.40;101294.00;;;;4961340;28;88094;-64
2021/09/07 01:21:28;;;;;;;12.43;7.28;;;15.40;99.90;15.40;101290.00;;;;4954868;28;87906;-65
2021/09/07 01:23:55;;;;;;;11.77;6.43;;;15.30;99.90;15.40;101297.00;;;;4954485;28;116585;-65
2021/09/07 01:26:22;;;;;;;12.10;7.28;;;15.30;99.90;15.40;101291.00;;;;4960742;28;118042;-65
2021/09/07 01:28:48;;;;;;;9.23;6.10;;;15.30;99.90;15.40;101294.00;;;;4957132;28;104267;-64
2021/09/07 01:31:15;;;;;;;11.30;6.07;;;15.30;99.90;15.40;101300.00;;;;4962304;28;93122;-65
2021/09/07 01:33:41;;;;;;;9.07;6.35;;;15.30;99.90;15.40;101285.00;;;;4965627;28;89196;-64
2021/09/07 01:36:07;;;;;;;12.00;6.97;;;15.30;99.90;15.40;101286.00;;;;4958896;28;95545;-64
2021/09/07 01:38:34;;;;;;;14.10;7.80;;;15.30;99.90;15.40;101286.00;;;;4967538;28;87912;-65
2021/09/07 01:41:01;;;;;;;12.70;7.95;;;15.30;99.90;15.40;101282.00;;;;4962007;28;87689;-65
2021/09/07 01:43:26;;;;;;;9.52;6.60;;;15.30;99.90;15.30;101283.00;;;;4955326;28;89129;-64
2021/09/07 01:45:54;;;;;;;8.93;6.55;;;15.20;99.90;15.30;101286.00;;;;4959798;28;106582;-65
2021/09/07 01:48:21;;;;;;;9.65;6.60;;;15.50;99.90;15.30;101282.00;;;;4961849;28;93781;-65
2021/09/07 01:50:48;;;;;;;10.20;7.03;;;15.20;99.90;15.30;101288.00;;;;4954522;28;87052;-64
2021/09/07 01:53:14;;;;;;;9.52;6.78;;;15.20;99.90;15.30;101295.00;;;;4959879;28;118033;-64
2021/09/07 01:55:41;;;;;;;12.15;7.65;;;15.20;99.90;15.30;101290.00;;;;4956614;28;88545;-66
2021/09/07 01:58:06;;;;;;;11.70;7.55;;;15.20;99.90;15.30;101301.00;;;;4961057;28;89287;-64
2021/09/07 02:00:32;;;;;;;12.48;7.75;;;15.20;99.90;15.30;101304.00;;;;4955716;28;87853;-64
2021/09/07 02:02:59;;;;;;;14.53;8.03;;;15.20;99.90;15.30;101294.00;;;;4960698;28;117316;-64
2021/09/07 02:05:25;;;;;;;12.98;7.50;;;15.20;99.90;15.30;101294.00;;;;4957242;28;116016;-64
2021/09/07 02:07:51;;;;;;;10.13;6.75;;;15.20;99.90;15.30;101296.00;;;;4962345;28;87623;-64
2021/09/07 02:10:19;;;;;;;12.47;7.93;;;15.20;99.90;15.20;101304.00;;;;4954711;28;109055;-64
2021/09/07 02:12:45;;;;;;;12.60;8.35;;;15.20;99.90;15.20;101300.00;;;;4962643;28;89201;-65
2021/09/07 02:15:11;;;;;;;19.25;8.75;;;15.20;99.90;15.20;101296.00;;;;4971753;28;88199;-63
2021/09/07 02:17:37;;;;;;;12.80;7.88;;;15.10;99.90;15.20;101291.00;;;;4959777;28;88164;-66
2021/09/07 02:20:05;;;;;;;9.70;6.77;;;15.10;99.90;15.20;101302.00;;;;4955811;28;87810;-64
2021/09/07 02:22:31;;;;;;;13.68;8.38;;;15.10;99.90;15.20;101304.00;;;;4963393;28;96172;-63
2021/09/07 02:24:56;;;;;;;14.27;8.37;;;15.10;99.90;15.20;101303.00;;;;4962946;28;88690;-64
2021/09/07 02:27:22;;;;;;;12.32;7.20;;;15.30;99.90;15.20;101306.00;;;;4962438;28;87777;-64
2021/09/07 02:29:48;;;;;;;11.52;7.85;;;15.10;99.90;15.20;101308.00;;;;4969637;28;87812;-64
2021/09/07 02:32:14;;;;;;;15.98;8.98;;;15.10;99.90;15.20;101301.00;;;;4954824;28;117535;-64
2021/09/07 02:34:40;;;;;;;12.07;7.45;;;15.10;99.90;15.20;101300.00;;;;4958665;28;87849;-64
2021/09/07 02:37:06;;;;;;;10.13;7.60;;;15.10;99.90;15.20;101302.00;;;;4959131;28;99126;-64
2021/09/07 02:39:32;;;;;;;8.70;7.03;;;15.10;99.90;15.20;101305.00;;;;4955603;28;87670;-64
2021/09/07 02:41:58;;;;;;;10.23;7.07;;;15.10;99.90;15.20;101311.00;;;;4962464;28;107026;-63
2021/09/07 02:44:24;;;;;;;13.57;8.38;;;15.00;99.90;15.20;101319.00;;;;4966536;28;96311;-63
2021/09/07 02:46:51;;;;;;;11.15;6.95;;;15.10;99.90;15.20;101319.00;;;;4963712;28;110005;-64
2021/09/07 02:49:16;;;;;;;10.00;6.95;;;15.10;99.90;15.20;101321.00;;;;4964819;28;87831;-65
2021/09/07 02:51:47;;;;;;;12.18;7.35;;;15.10;99.90;15.20;101311.00;;;;4962024;28;92421;-64
2021/09/07 02:54:14;;;;;;;10.55;7.60;;;15.10;99.90;15.20;101320.00;;;;4963420;28;88112;-64
2021/09/07 02:56:40;;;;;;;10.60;7.28;;;15.10;99.90;15.20;101319.00;;;;4958353;28;87989;-64
2021/09/07 02:59:06;;;;;;;12.50;6.85;;;15.10;99.90;15.20;101320.00;;;;4954581;28;97118;-64
2021/09/07 03:01:31;;;;;;;14.55;8.40;;;15.10;99.90;15.20;101311.00;;;;4955357;28;118448;-64
2021/09/07 03:03:57;;;;;;;9.27;6.82;;;15.10;99.90;15.20;101304.00;;;;4959376;28;117626;-64
2021/09/07 03:06:23;;;;;;;13.45;8.00;;;15.10;99.90;15.20;101309.00;;;;4961174;28;87511;-64
2021/09/07 03:08:48;;;;;;;12.10;7.75;;;15.10;99.90;15.20;101311.00;;;;4955537;28;110044;-64
2021/09/07 03:11:14;;;;;;;15.30;7.88;;;15.10;99.90;15.20;101306.00;;;;4955764;28;119870;-64
2021/09/07 03:13:40;;;;;;;10.05;6.72;;;15.20;99.90;15.20;101302.00;;;;4954570;28;119072;-64
2021/09/07 03:16:06;;;;;;;13.15;7.25;;;15.10;99.90;15.20;101306.00;;;;4959628;28;87753;-64
2021/09/07 03:18:32;;;;;;;9.05;6.95;;;15.10;99.90;15.20;101300.00;;;;4954236;28;102171;-64
2021/09/07 03:20:58;;;;;;;14.75;8.02;;;15.10;99.90;15.20;101300.00;;;;4955423;28;118705;-64
2021/09/07 03:23:24;;;;;;;15.35;8.45;;;15.10;99.90;15.20;101304.00;;;;4961852;28;88962;-65
2021/09/07 03:25:49;;;;;;;13.38;8.55;;;15.10;99.90;15.20;101303.00;;;;4959000;28;87868;-64
2021/09/07 03:28:16;;;;;;;14.02;7.88;;;15.10;99.90;15.20;101304.00;;;;4963515;28;107907;-65
2021/09/07 03:30:41;;;;;;;12.65;8.30;;;15.10;99.90;15.10;101305.00;;;;4959323;28;90688;-64
2021/09/07 03:33:07;;;;;;;16.77;8.55;;;15.00;99.90;15.10;101297.00;;;;4959106;28;88137;-66
2021/09/07 03:35:33;;;;;;;13.77;9.13;;;15.00;99.90;15.10;101297.00;;;;4953910;28;98856;-64
2021/09/07 03:37:59;;;;;;;10.88;7.05;;;15.00;99.90;15.00;101296.00;;;;4955439;28;87617;-65
2021/09/07 03:40:25;;;;;;;14.95;7.65;;;15.00;99.90;15.00;101308.00;;;;4960267;28;87884;-64
2021/09/07 03:42:51;;;;;;;11.77;7.80;;;14.90;99.90;15.00;101315.00;;;;4958465;28;105003;-64
2021/09/07 03:45:18;;;;;;;15.90;8.40;;;14.90;99.90;15.00;101309.00;;;;4960870;28;87759;-64
2021/09/07 03:47:45;;;;;;;13.07;7.82;;;14.90;99.90;15.00;101312.00;;;;4954881;28;87690;-64
2021/09/07 03:50:13;;;;;;;11.57;7.80;;;14.90;99.90;15.00;101311.00;;;;4954205;28;89091;-64
2021/09/07 03:52:39;;;;;;;11.77;8.02;;;14.90;99.90;15.00;101304.00;;;;4960002;28;88041;-64
2021/09/07 03:55:06;;;;;;;11.30;7.47;;;14.90;99.90;15.00;101308.00;;;;4962197;28;87697;-64
2021/09/07 03:57:32;;;;;;;13.48;8.43;;;14.90;99.90;15.00;101309.00;;;;4956228;28;87790;-64
2021/09/07 03:59:58;;;;;;;11.45;7.85;;;14.90;99.90;15.00;101308.00;;;;4953689;28;88934;-65
2021/09/07 04:02:24;;;;;;;13.75;8.82;;;15.90;99.90;15.00;101313.00;;;;4959931;28;97575;-64
2021/09/07 04:04:51;;;;;;;12.63;8.00;;;14.90;99.90;15.00;101312.00;;;;4954586;28;87990;-64
2021/09/07 04:07:17;;;;;;;13.13;8.05;;;14.90;99.90;15.00;101311.00;;;;4958271;28;87948;-64
2021/09/07 04:09:43;;;;;;;13.07;8.40;;;15.00;99.90;15.00;101311.00;;;;4960524;28;88931;-65
2021/09/07 04:12:09;;;;;;;12.73;8.07;;;14.90;99.90;15.00;101317.00;;;;4968746;28;88366;-64
2021/09/07 04:14:34;;;;;;;10.73;7.75;;;14.90;99.90;15.00;101318.00;;;;4954518;28;88066;-64
2021/09/07 04:17:02;;;;;;;11.20;7.45;;;14.90;99.90;15.00;101315.00;;;;4964709;28;110077;-65
2021/09/07 04:19:28;;;;;;;12.93;7.73;;;14.90;99.90;15.00;101322.00;;;;4944999;28;90602;-64
2021/09/07 04:21:54;;;;;;;12.45;8.25;;;14.90;99.90;15.00;101310.00;;;;4953426;28;114202;-64
2021/09/07 04:24:19;;;;;;;14.87;8.37;;;14.90;99.90;15.00;101327.00;;;;4956166;28;110683;-64
2021/09/07 04:26:45;;;;;;;15.07;8.75;;;14.90;99.90;15.00;101332.00;;;;4955079;28;96897;-64
2021/09/07 04:29:11;;;;;;;12.52;7.60;;;14.90;99.90;15.00;101321.00;;;;4952384;28;111797;-65
2021/09/07 04:31:37;;;;;;;18.83;8.02;;;14.90;99.90;15.00;101333.00;;;;4954235;28;118119;-63
2021/09/07 04:34:03;;;;;;;13.73;8.97;;;14.90;99.90;15.00;101327.00;;;;4959455;28;88919;-65
2021/09/07 04:36:29;;;;;;;15.53;8.03;;;14.90;99.90;15.00;101332.00;;;;4958994;28;89001;-64
2021/09/07 04:38:55;;;;;;;14.03;8.47;;;14.90;99.90;15.00;101329.00;;;;4953114;28;95029;-65
2021/09/07 04:41:21;;;;;;;11.57;8.60;;;14.90;99.90;15.00;101331.00;;;;4956034;28;87803;-64
2021/09/07 04:43:47;;;;;;;13.03;7.43;;;14.90;99.90;15.00;101339.00;;;;4953557;28;88016;-65
2021/09/07 04:46:13;;;;;;;13.23;7.85;;;14.90;99.90;15.00;101344.00;;;;4952528;28;108806;-65
2021/09/07 04:48:38;;;;;;;13.38;8.52;;;15.00;99.90;15.00;101350.00;;;;4952831;28;88706;-65
2021/09/07 04:51:04;;;;;;;12.15;8.20;;;14.90;99.90;15.00;101342.00;;;;4954547;28;115075;-65
2021/09/07 04:53:30;;;;;;;14.10;7.90;;;14.90;99.90;15.10;101341.00;;;;4958449;28;110909;-64
2021/09/07 04:55:55;;;;;;;15.73;8.30;;;15.00;99.90;15.10;101344.00;;;;4955380;28;109877;-65
2021/09/07 04:58:22;;;;;;;13.13;7.43;;;15.00;99.90;15.10;101345.00;;;;4955553;28;118057;-65
2021/09/07 05:00:48;;;;;;;14.50;8.17;;;15.00;99.90;15.10;101352.00;;;;4955091;28;88882;-65
2021/09/07 05:03:14;;;;;;;12.73;8.13;;;15.00;99.90;15.10;101355.00;;;;4957105;28;88119;-65
2021/09/07 05:05:39;;;;;;;11.63;8.32;;;15.00;99.90;15.10;101361.00;;;;4953057;28;107544;-66
2021/09/07 05:08:05;;;;;;;14.32;7.78;;;15.00;99.90;15.10;101358.00;;;;4951863;28;117795;-65
2021/09/07 05:10:31;;;;;;;16.53;7.13;;;15.10;99.90;15.20;101364.00;;;;4952608;28;101131;-65
2021/09/07 05:12:57;;;;;;;11.98;7.57;;;15.10;99.90;15.20;101359.00;;;;4955961;28;110245;-65
2021/09/07 05:15:22;;;;;;;16.45;6.53;;;15.10;99.90;15.20;101368.00;;;;4960807;28;90689;-65
2021/09/07 05:17:49;;;;;;;13.40;8.23;;;15.10;99.90;15.20;101374.00;;;;4960263;28;87757;-65
2021/09/07 05:20:15;;;;;;;13.52;7.43;;;15.10;99.90;15.20;101369.00;;;;4952736;28;88723;-64
2021/09/07 05:22:41;;;;;;;11.23;7.40;;;15.10;99.90;15.30;101371.00;;;;4952595;28;88041;-64
2021/09/07 05:25:07;;;;;;;10.90;7.05;;;15.20;99.90;15.30;101381.00;;;;4952444;28;108942;-63
2021/09/07 05:27:35;;;;;;;8.95;5.80;;;15.20;99.90;15.30;101380.00;;;;4960210;28;89023;-66
2021/09/07 05:30:03;;;;;;;14.32;8.45;;;15.20;99.90;15.40;101383.00;;;;4959515;28;87048;-65
2021/09/07 05:32:29;;;;;;;10.43;7.35;;;15.20;99.90;15.40;101385.00;;;;4958678;28;87642;-65
2021/09/07 05:34:54;;;;;;;11.20;6.93;;;15.30;99.90;15.40;101380.00;;;;4952300;28;109005;-65
2021/09/07 05:37:20;;;;;;;10.90;7.68;;;15.30;99.90;15.40;101389.00;;;;4955075;28;89023;-65
2021/09/07 05:39:46;;;;;;;15.27;7.85;;;15.30;99.90;15.40;101387.00;;;;4952078;28;118556;-65
2021/09/07 05:42:12;;;;;;;8.82;6.15;;;15.30;99.90;15.40;101385.00;;;;4961109;28;110354;-64
2021/09/07 05:44:37;;;;;;;13.82;7.85;;;15.30;99.90;15.40;101384.00;;;;4962482;28;87761;-65
2021/09/07 05:47:03;;;;;;;9.95;7.22;;;15.30;99.90;15.40;101390.00;;;;4958216;28;91742;-64
2021/09/07 05:49:31;;;;;;;15.75;8.35;;;15.30;99.90;15.50;101387.00;;;;4953251;28;88919;-64
2021/09/07 05:51:57;;;;;;;12.00;7.43;;;15.40;99.90;15.50;101389.00;;;;4960257;28;87977;-65
2021/09/07 05:54:23;;;;;;;10.13;7.30;;;15.40;99.90;15.50;101387.00;;;;4953387;28;86934;-65
2021/09/07 05:56:48;;;;;;;10.00;6.93;;;15.40;99.90;15.50;101378.00;;;;4954340;28;117632;-64
2021/09/07 05:59:16;;;;;;;14.07;7.93;;;15.40;99.90;15.50;101384.00;;;;4954357;28;117661;-64
2021/09/07 06:01:42;;;;;;;13.25;7.82;;;15.40;99.90;15.60;101384.00;;;;4958338;28;88873;-64
2021/09/07 06:04:08;;;;;;;16.98;8.85;;;15.40;99.90;15.60;101388.00;;;;4953658;28;87717;-65
2021/09/07 06:06:34;;;;;;;12.38;8.23;;;15.50;99.90;15.60;101392.00;;;;4957696;28;88193;-64
2021/09/07 06:09:00;;;;;;;16.05;7.97;;;15.50;99.90;15.70;101390.00;;;;4943221;28;112583;-64
2021/09/07 06:11:26;;;;;;;12.10;7.15;;;15.60;99.90;15.70;101395.00;;;;4963908;28;87746;-64
2021/09/07 06:13:52;;;;;;;12.90;8.32;;;15.60;99.90;15.70;101397.00;;;;4959312;28;87844;-64
2021/09/07 06:16:17;;;;;;;12.30;7.05;;;15.60;99.90;15.80;101398.00;;;;4961758;28;88973;-65
2021/09/07 06:18:43;;;;;;;12.15;7.80;;;15.80;99.90;15.80;101404.00;;;;4966811;28;117074;-65
2021/09/07 06:21:09;;;;;;;10.23;6.90;;;15.70;99.90;15.90;101414.00;;;;4965452;28;111122;-65
2021/09/07 06:23:34;;;;;;;8.85;6.70;;;15.70;99.90;15.90;101416.00;;;;4955664;28;87924;-65
2021/09/07 06:26:00;;;;;;;13.85;7.85;;;15.80;99.90;15.90;101427.00;;;;4957085;28;118670;-65
2021/09/07 06:28:27;;;;;;;13.13;6.85;;;15.80;99.90;15.90;101425.00;;;;4967004;28;89571;-65
2021/09/07 06:30:53;;;;;;;15.30;7.75;;;15.80;99.90;16.00;101426.00;;;;4963028;28;87854;-65
2021/09/07 06:33:19;;;;;;;11.13;7.85;;;15.90;99.90;16.00;101430.00;;;;4956303;28;109778;-65
2021/09/07 06:35:45;;;;;;;11.45;6.88;;;15.90;99.90;16.10;101439.00;;;;4955329;28;99309;-65
2021/09/07 06:38:11;;;;;;;12.60;7.32;;;15.90;99.90;16.10;101431.00;;;;4962144;28;93727;-63
2021/09/07 06:40:37;;;;;;;10.65;7.00;;;15.90;99.90;16.10;101431.00;;;;4961592;28;109539;-66
2021/09/07 06:43:03;;;;;;;10.40;6.70;;;16.00;99.90;16.20;101436.00;;;;4959853;28;87572;-64
2021/09/07 06:45:29;;;;;;;10.70;6.50;;;16.10;99.90;16.20;101449.00;;;;4962044;28;87815;-65
2021/09/07 06:47:55;;;;;;;12.38;7.13;;;16.10;99.90;16.30;101436.00;;;;4937018;28;116957;-64
2021/09/07 06:50:20;;;;;;;15.73;7.75;;;16.10;99.90;16.30;101447.00;;;;4955263;28;88687;-65
2021/09/07 06:52:46;;;;;;;11.10;6.85;;;16.10;99.90;16.30;101443.00;;;;4957092;28;87636;-65
2021/09/07 06:55:12;;;;;;;9.70;6.65;;;16.20;99.90;16.40;101439.00;;;;4955485;28;87982;-64
2021/09/07 06:57:38;;;;;;;9.27;6.90;;;16.30;99.90;16.50;101447.00;;;;4959201;28;87856;-64
2021/09/07 07:00:05;;;;;;;11.27;7.10;;;16.30;99.90;16.50;101441.00;;;;4954885;28;97343;-64
2021/09/07 07:02:31;;;;;;;8.35;6.20;;;16.50;99.90;16.60;101440.00;;;;4957949;28;88114;-65
2021/09/07 07:04:59;;;;;;;12.48;6.93;;;16.50;99.90;16.70;101433.00;;;;4958517;28;88954;-66
2021/09/07 07:07:25;;;;;;;9.85;6.85;;;16.50;99.90;16.70;101434.00;;;;4956459;28;107708;-65
2021/09/07 07:09:51;;;;;;;9.02;6.50;;;16.50;99.90;16.80;101446.00;;;;4954120;28;110121;-65
2021/09/07 07:12:17;;;;;;;13.55;7.72;;;16.60;99.90;16.90;101441.00;;;;4954611;28;87868;-64
2021/09/07 07:14:44;;;;;;;15.07;6.78;;;16.70;99.90;16.90;101451.00;;;;4955951;28;118896;-65
2021/09/07 07:17:10;;;;;;;8.93;6.38;;;16.80;99.90;17.10;101434.00;;;;4955024;28;88019;-66
2021/09/07 07:19:35;;;;;;;9.77;6.30;;;16.80;99.90;17.20;101440.00;;;;4955077;28;110203;-66
2021/09/07 07:22:01;;;;;;;9.32;5.85;;;16.90;99.90;17.20;101448.00;;;;4963013;28;87995;-66
2021/09/07 07:24:27;;;;;;;9.57;6.22;;;17.10;99.90;17.40;101443.00;;;;4954010;28;88678;-66
2021/09/07 07:26:53;;;;;;;12.25;6.63;;;17.10;99.90;17.50;101438.00;;;;4959352;28;108808;-66
2021/09/07 07:29:18;;;;;;;10.93;6.28;;;17.30;99.90;17.60;101448.00;;;;4953617;28;109695;-66
2021/09/07 07:31:44;;;;;;;11.15;6.10;;;17.40;99.90;17.70;101448.00;;;;4954382;28;107346;-66
2021/09/07 07:34:10;;;;;;;10.75;5.95;;;17.50;99.90;17.80;101444.00;;;;4965718;28;88794;-65
2021/09/07 07:36:36;;;;;;;12.77;7.50;;;17.60;99.90;17.90;101453.00;;;;4953409;28;88014;-67
2021/09/07 07:39:03;;;;;;;8.52;6.10;;;17.70;99.90;18.10;101454.00;;;;4953317;28;88754;-68
2021/09/07 07:41:29;;;;;;;8.27;5.88;;;17.80;99.90;18.20;101458.00;;;;4954237;28;87781;-68
2021/09/07 07:43:55;;;;;;;8.85;5.40;;;17.90;99.90;18.30;101454.00;;;;4950319;28;90158;-67
2021/09/07 07:46:21;;;;;;;11.82;6.20;;;18.00;99.90;18.40;101454.00;;;;4966590;28;87962;-67
2021/09/07 07:48:47;;;;;;;10.43;6.55;;;18.10;99.90;18.50;101451.00;;;;4957212;28;88018;-68
2021/09/07 07:51:13;;;;;;;10.85;7.15;;;18.20;99.90;18.70;101458.00;;;;4959057;28;87857;-68
2021/09/07 07:53:40;;;;;;;6.22;4.93;;;18.40;99.90;18.80;101461.00;;;;4959343;28;89004;-70
2021/09/07 07:56:07;;;;;;;8.02;4.90;;;18.50;99.90;19.00;101458.00;;;;4955723;28;87340;-68
2021/09/07 07:58:33;;;;;;;16.77;5.53;;;18.70;99.90;19.30;101458.00;;;;4953859;28;87942;-68
2021/09/07 08:01:00;;;;;;;8.52;5.35;;;19.00;99.90;19.50;101462.00;;;;4954188;28;95358;-68
2021/09/07 08:03:26;;;;;;;8.30;5.88;;;19.20;99.90;19.70;101473.00;;;;4953084;28;89490;-68
2021/09/07 08:05:52;;;;;;;8.25;4.97;;;19.40;99.90;19.90;101469.00;;;;4959755;28;117921;-68
2021/09/07 08:08:18;;;;;;;6.22;4.72;;;19.60;99.90;20.10;101465.00;;;;4952716;28;109214;-68
2021/09/07 08:10:43;;;;;;;8.27;5.15;;;19.80;99.90;20.30;101470.00;;;;4951090;28;108580;-67
2021/09/07 08:13:09;;;;;;;7.13;5.05;;;20.00;99.90;20.50;101473.00;;;;4951972;28;118808;-68
2021/09/07 08:15:35;;;;;;;8.68;5.97;;;20.20;99.90;20.70;101474.00;;;;4952533;28;117076;-68
2021/09/07 08:18:01;;;;;;;10.70;5.78;;;20.40;99.90;20.70;101473.00;;;;4953618;28;88807;-68
2021/09/07 08:20:32;;;;;;;11.30;6.38;;;20.40;99.90;20.80;101478.00;;;;4954206;28;87057;-67
2021/09/07 08:23:02;;;;;;;10.80;5.85;;;20.90;99.90;20.90;101478.00;;;;4951365;28;87870;-67
2021/09/07 08:25:29;;;;;;;7.60;5.07;;;20.60;99.90;21.00;101484.00;;;;4953802;28;87619;-68
2021/09/07 08:27:55;;;;;;;10.27;5.57;;;20.70;99.90;21.10;101490.00;;;;4949198;28;95093;-68
2021/09/07 08:30:21;;;;;;;9.25;4.53;;;20.80;99.90;21.10;101494.00;;;;4958718;28;109396;-67
2021/09/07 08:32:46;;;;;;;8.55;5.05;;;20.90;99.90;21.10;101481.00;;;;4951745;28;117347;-68
2021/09/07 08:35:14;;;;;;;6.82;4.63;;;20.90;99.90;21.20;101489.00;;;;4958913;28;87873;-67
2021/09/07 08:37:41;;;;;;;12.02;4.78;;;21.00;99.90;21.30;101490.00;;;;4953299;28;88986;-67
2021/09/07 08:40:10;;;;;;;9.63;5.38;;;21.00;99.90;21.40;101486.00;;;;4953419;28;88859;-67
2021/09/07 08:42:37;;;;;;;5.68;4.47;;;21.10;99.90;21.40;101492.00;;;;4953217;28;88515;-69
2021/09/07 08:45:06;;;;;;;10.65;5.07;;;21.20;99.90;21.60;101490.00;;;;4954493;28;96817;-69
2021/09/07 08:47:32;;;;;;;10.13;4.93;;;21.30;99.90;21.90;101494.00;;;;4952811;28;92266;-69
2021/09/07 08:49:57;;;;;;;8.13;5.25;;;21.50;99.90;22.10;101489.00;;;;4951408;28;87741;-67
2021/09/07 08:52:25;;;;;;;6.00;4.32;;;21.80;99.90;22.40;101488.00;;;;4952713;28;89120;-67
2021/09/07 08:54:51;;;;;;;5.93;4.40;;;22.10;99.90;22.80;101488.00;;;;4957519;28;89171;-67
2021/09/07 08:57:17;;;;;;;9.73;4.78;;;22.40;99.90;23.20;101494.00;;;;4952570;28;87938;-68
2021/09/07 08:59:43;;;;;;;4.40;3.92;;;22.70;99.90;23.60;101494.00;;;;4952117;28;110414;-67
2021/09/07 09:02:19;;;;;;;7.63;4.88;;;23.10;99.90;23.90;101497.00;;;;4955316;28;119335;-69
2021/09/07 09:04:47;;;;;;;7.13;4.38;;;23.50;97.60;24.30;101496.00;;;;4952828;28;87631;-68
2021/09/07 09:07:27;;;;;;;5.43;3.55;;;23.80;96.40;24.50;101502.00;;;;4952680;28;87930;-68
2021/09/07 09:09:56;;;;;;;7.15;4.03;;;24.10;95.10;24.90;101503.00;;;;4946691;28;87018;-68
2021/09/07 09:12:36;;;;;;;5.53;4.30;;;24.40;94.70;25.30;101498.00;;;;4964552;28;87807;-67
2021/09/07 09:15:16;;;;;;;5.10;3.53;;;24.80;93.60;25.70;101502.00;;;;4953230;28;87661;-67
2021/09/07 09:17:42;;;;;;;8.93;4.38;;;25.20;92.50;26.10;101499.00;;;;4937900;28;89635;-67
2021/09/07 09:20:16;;;;;;;4.72;3.53;;;25.50;90.50;26.20;101495.00;;;;4956911;28;87747;-69
2021/09/07 09:22:54;;;;;;;4.15;3.63;;;25.80;85.40;26.30;101504.00;;;;4952138;28;88360;-69
2021/09/07 09:25:20;;;;;;;5.63;3.60;;;25.90;82.40;26.30;101502.00;;;;4953047;28;88205;-68
2021/09/07 09:27:54;;;;;;;7.05;4.53;;;25.90;78.20;26.30;101498.00;;;;4952801;28;87685;-69
2021/09/07 09:30:55;;;;;;;4.55;3.60;;;26.00;76.10;26.70;101508.00;;;;4955609;28;88023;-68
2021/09/07 09:33:26;;;;;;;5.65;3.75;;;26.20;76.10;27.00;101504.00;;;;4937345;28;87854;-69
2021/09/07 09:36:00;;;;;;;6.15;3.67;;;26.40;75.20;27.40;101501.00;;;;4955589;28;88775;-68
2021/09/07 09:38:33;;;;;;;6.40;3.90;;;26.70;74.40;27.70;101508.00;;;;4952657;28;87751;-68
2021/09/07 09:41:06;;;;;;;3.70;2.45;;;27.10;73.60;28.00;101500.00;;;;4954751;28;87826;-69
2021/09/07 09:43:44;;;;;;;4.40;2.85;;;27.40;71.50;28.00;101509.00;;;;4952696;28;88962;-70
2021/09/07 09:46:23;;;;;;;4.60;2.88;;;27.50;69.90;27.80;101503.00;;;;4960189;28;88687;-68
2021/09/07 09:48:49;;;;;;;4.50;2.70;;;27.50;66.70;27.50;101501.00;;;;4961071;28;87740;-69
2021/09/07 09:51:19;;;;;;;5.05;2.55;;;27.30;65.00;27.50;101504.00;;;;4960664;28;87864;-69
2021/09/07 09:53:47;;;;;;;3.92;2.55;;;27.20;64.90;27.60;101505.00;;;;4955638;28;88932;-69
2021/09/07 09:56:14;;;;;;;5.75;3.03;;;27.20;63.60;27.70;101500.00;;;;4956166;28;88111;-69
2021/09/07 09:58:39;;;;;;;2.63;2.42;;;27.20;60.00;27.80;101491.00;;;;4960520;28;87888;-68
2021/09/07 10:01:05;;;;;;;6.13;3.25;;;27.30;60.90;27.90;101496.00;;;;4957003;28;89472;-69
2021/09/07 10:03:33;;;;;;;4.45;3.25;;;27.40;60.00;28.10;101492.00;;;;4956917;28;89054;-68
2021/09/07 10:06:00;;;;;;;6.35;3.85;;;27.50;59.50;28.20;101499.00;;;;4955555;28;109860;-68
2021/09/07 10:08:27;;;;;;;8.68;3.53;;;27.70;59.10;28.40;101499.00;;;;4956199;28;98679;-68
2021/09/07 10:11:06;;;;;;;4.38;2.85;;;27.80;58.90;28.50;101499.00;;;;4956155;28;109191;-69
2021/09/07 10:13:34;;;;;;;5.63;3.33;;;27.90;58.30;28.60;101491.00;;;;4953804;28;88028;-70
2021/09/07 10:16:13;;;;;;;6.97;2.72;;;28.00;57.50;28.80;101491.00;;;;4955321;28;92210;-68
2021/09/07 10:18:50;;;;;;;5.22;3.25;;;28.40;57.90;29.00;101499.00;;;;4959342;28;88134;-71
2021/09/07 10:26:42;;;;;;;3.28;2.58;;;28.90;55.70;30.00;101505.00;;;;4952709;28;87708;-67
2021/09/07 10:29:13;;;;;;;2.75;2.47;;;29.20;55.00;30.10;101489.00;;;;4955483;28;87808;-68
2021/09/07 10:31:48;;;;;;;3.67;2.53;;;29.40;53.40;30.00;101485.00;;;;4955902;28;87643;-68
2021/09/07 10:34:26;;;;;;;3.95;2.70;;;29.40;52.10;29.80;101487.00;;;;4954382;28;89194;-69
2021/09/07 10:37:02;;;;;;;3.67;2.75;;;29.10;52.00;29.70;101480.00;;;;4956973;28;88465;-68
2021/09/07 10:39:39;;;;;;;3.35;2.20;;;29.10;52.10;29.60;101474.00;;;;4956169;28;87893;-68
2021/09/07 10:42:12;;;;;;;2.92;2.25;;;29.10;51.60;29.60;101475.00;;;;4960540;28;88621;-68
2021/09/07 10:44:42;;;;;;;5.28;2.63;;;29.00;51.50;29.60;101478.00;;;;4955507;28;88131;-69